Time;durP1;ratioP1;P1;durP2;ratioP2;P2;SDS_P1;SDS_P2;PMS_P1;PMS_P2;Temp;Humidity;BMP_temperature;BMP_pressure;BME280_temperature;BME280_humidity;BME280_pressure;Samples;Min_cycle;Max_cycle;Signal;HPM_P1;HPM_P2
2023/11/28 00:02:26;;;;;;;97.85;50.40;;;;;;;;;;4977025;28;20030;-76
2023/11/28 00:04:52;;;;;;;174.20;88.75;;;;;;;;;;4976748;28;20122;-76
2023/11/28 00:07:17;;;;;;;114.30;63.58;;;;;;;;;;4977230;28;20452;-76
2023/11/28 00:09:42;;;;;;;80.78;52.90;;;;;;;;;;4994518;28;20030;-79
2023/11/28 00:15:44;;;;;;;86.22;58.10;;;;;;;;;;4995570;28;20464;-76
2023/11/28 00:18:10;;;;;;;65.78;40.97;;;;;;;;;;4980319;28;20034;-77
2023/11/28 00:20:36;;;;;;;37.30;24.85;;;;;;;;;;4980488;28;20121;-70
2023/11/28 00:23:01;;;;;;;61.33;42.88;;;;;;;;;;4998435;28;20072;-70
2023/11/28 00:25:27;;;;;;;29.48;18.23;;;;;;;;;;4998164;28;20034;-70
2023/11/28 00:27:52;;;;;;;43.42;30.13;;;;;;;;;;4980571;28;20050;-71
2023/11/28 00:30:19;;;;;;;43.67;28.90;;;;;;;;;;4997831;28;20114;-68
2023/11/28 00:32:44;;;;;;;36.38;25.52;;;;;;;;;;4980603;28;20033;-68
2023/11/28 00:35:10;;;;;;;29.40;18.38;;;;;;;;;;4997679;28;20477;-69
2023/11/28 00:37:35;;;;;;;28.05;17.35;;;;;;;;;;4980268;28;20109;-67
2023/11/28 00:40:04;;;;;;;30.00;19.90;;;;;;;;;;5014719;23;21194;-75
2023/11/28 00:45:25;;;;;;;29.55;17.58;;;;;;;;;;4998047;28;20042;-69
2023/11/28 00:47:50;;;;;;;32.70;18.80;;;;;;;;;;5017116;28;20037;-70
2023/11/28 00:50:17;;;;;;;29.40;19.38;;;;;;;;;;4999416;28;20033;-70
2023/11/28 00:52:43;;;;;;;42.22;25.15;;;;;;;;;;5016747;28;20037;-70
2023/11/28 00:55:09;;;;;;;39.47;24.15;;;;;;;;;;5016954;28;20034;-70
2023/11/28 00:57:35;;;;;;;32.20;18.77;;;;;;;;;;5016637;28;20030;-67
2023/11/28 01:00:00;;;;;;;30.55;17.13;;;;;;;;;;5016810;28;20014;-71
2023/11/28 01:02:26;;;;;;;37.83;22.15;;;;;;;;;;4998999;28;20037;-71
2023/11/28 01:04:52;;;;;;;26.83;15.75;;;;;;;;;;5015746;28;20156;-71
2023/11/28 01:07:18;;;;;;;25.25;16.17;;;;;;;;;;5016783;28;20030;-71
2023/11/28 01:09:43;;;;;;;27.83;17.00;;;;;;;;;;4996709;28;20046;-70
2023/11/28 01:12:09;;;;;;;32.90;20.85;;;;;;;;;;4979739;28;20428;-69
2023/11/28 01:14:34;;;;;;;29.30;17.08;;;;;;;;;;4979250;28;20029;-68
2023/11/28 01:17:00;;;;;;;26.98;16.17;;;;;;;;;;4979279;28;20031;-68
2023/11/28 01:19:26;;;;;;;29.98;16.42;;;;;;;;;;4996928;28;20041;-69
2023/11/28 01:21:52;;;;;;;27.98;16.88;;;;;;;;;;4979323;28;20536;-70
2023/11/28 01:24:18;;;;;;;24.17;16.70;;;;;;;;;;4979111;28;20042;-70
2023/11/28 01:26:43;;;;;;;25.75;15.50;;;;;;;;;;4996453;28;20069;-70
2023/11/28 01:29:08;;;;;;;27.33;17.10;;;;;;;;;;4996549;28;20033;-72
2023/11/28 01:31:35;;;;;;;24.88;14.27;;;;;;;;;;4979059;28;20077;-71
2023/11/28 01:34:00;;;;;;;26.70;15.15;;;;;;;;;;4996356;28;20449;-72
2023/11/28 01:36:26;;;;;;;25.60;15.15;;;;;;;;;;4996350;28;20126;-72
2023/11/28 01:38:51;;;;;;;23.95;14.30;;;;;;;;;;4996420;28;20018;-72
2023/11/28 01:41:16;;;;;;;26.02;15.07;;;;;;;;;;4978744;28;20141;-73
2023/11/28 01:43:42;;;;;;;25.25;15.02;;;;;;;;;;4978726;28;20137;-66
2023/11/28 01:46:09;;;;;;;25.48;14.45;;;;;;;;;;4996041;28;20113;-69
2023/11/28 01:48:35;;;;;;;23.00;13.50;;;;;;;;;;4996397;28;20164;-70
2023/11/28 01:51:01;;;;;;;27.20;16.20;;;;;;;;;;4996465;28;20058;-70
2023/11/28 01:53:28;;;;;;;26.98;16.08;;;;;;;;;;4996021;28;20367;-70
2023/11/28 01:55:54;;;;;;;29.35;15.55;;;;;;;;;;4994978;28;20616;-70
2023/11/28 01:58:20;;;;;;;27.20;17.73;;;;;;;;;;4979228;28;20049;-70
2023/11/28 02:00:45;;;;;;;23.65;15.35;;;;;;;;;;4979096;28;20050;-70
2023/11/28 02:03:12;;;;;;;28.27;16.52;;;;;;;;;;4978403;28;20031;-70
2023/11/28 02:05:37;;;;;;;24.33;14.45;;;;;;;;;;4996291;28;20023;-70
2023/11/28 02:08:05;;;;;;;25.70;16.67;;;;;;;;;;4995711;28;20457;-70
2023/11/28 02:10:33;;;;;;;23.85;14.90;;;;;;;;;;4996005;28;20077;-72
2023/11/28 02:12:59;;;;;;;30.50;17.33;;;;;;;;;;4978174;28;20038;-71
2023/11/28 02:15:43;;;;;;;32.35;18.05;;;;;;;;;;4979367;28;20058;-70
2023/11/28 02:18:09;;;;;;;26.27;14.85;;;;;;;;;;4962624;28;20038;-70
2023/11/28 02:20:35;;;;;;;24.98;14.63;;;;;;;;;;4995753;28;20022;-72
2023/11/28 02:23:00;;;;;;;32.50;18.60;;;;;;;;;;4978008;28;20029;-69
2023/11/28 02:25:27;;;;;;;32.17;17.83;;;;;;;;;;4978255;28;20053;-70
2023/11/28 02:27:53;;;;;;;25.25;15.80;;;;;;;;;;4995640;28;20018;-69
2023/11/28 02:30:18;;;;;;;27.63;15.90;;;;;;;;;;4995893;28;20049;-70
2023/11/28 02:32:44;;;;;;;30.23;17.17;;;;;;;;;;4977812;28;20034;-69
2023/11/28 02:35:10;;;;;;;29.92;17.10;;;;;;;;;;4995313;28;20073;-70
2023/11/28 02:37:35;;;;;;;28.98;17.10;;;;;;;;;;4995402;28;20038;-70
2023/11/28 02:40:00;;;;;;;27.83;17.27;;;;;;;;;;4995597;28;20139;-70
2023/11/28 02:42:26;;;;;;;27.15;17.20;;;;;;;;;;4978092;28;20461;-68
2023/11/28 02:44:51;;;;;;;27.58;17.92;;;;;;;;;;4995104;28;20046;-68
2023/11/28 02:47:17;;;;;;;26.90;16.98;;;;;;;;;;4977839;28;20026;-69
2023/11/28 02:49:42;;;;;;;29.27;18.40;;;;;;;;;;4977785;28;20038;-71
2023/11/28 02:52:08;;;;;;;26.10;15.90;;;;;;;;;;4978185;28;20038;-73
2023/11/28 02:54:33;;;;;;;29.80;18.15;;;;;;;;;;4994738;28;20026;-71
2023/11/28 02:56:58;;;;;;;28.02;17.50;;;;;;;;;;4995098;28;20070;-71
2023/11/28 02:59:24;;;;;;;26.85;16.55;;;;;;;;;;4994469;28;20041;-73
2023/11/28 03:01:53;;;;;;;28.65;18.08;;;;;;;;;;4977324;28;20080;-73
2023/11/28 03:04:20;;;;;;;27.63;18.98;;;;;;;;;;4994999;28;20042;-72
2023/11/28 03:06:45;;;;;;;28.25;17.83;;;;;;;;;;4994928;28;20073;-72
2023/11/28 03:09:11;;;;;;;27.17;17.95;;;;;;;;;;4977271;28;20448;-68
2023/11/28 03:11:37;;;;;;;27.08;17.60;;;;;;;;;;4994847;28;20084;-67
2023/11/28 03:14:02;;;;;;;27.30;16.88;;;;;;;;;;4961170;28;20072;-67
2023/11/28 03:16:27;;;;;;;25.42;16.60;;;;;;;;;;4994582;28;20031;-66
2023/11/28 03:18:53;;;;;;;24.48;16.83;;;;;;;;;;4977062;28;20523;-67
2023/11/28 03:21:19;;;;;;;25.42;16.98;;;;;;;;;;4977135;28;20030;-67
2023/11/28 03:23:45;;;;;;;23.90;16.60;;;;;;;;;;4994737;28;20026;-68
2023/11/28 03:26:10;;;;;;;25.27;18.55;;;;;;;;;;4994422;28;20503;-67
2023/11/28 03:28:35;;;;;;;28.60;17.70;;;;;;;;;;4976810;28;20538;-67
2023/11/28 03:31:01;;;;;;;24.92;17.45;;;;;;;;;;4994654;28;20027;-69
2023/11/28 03:33:26;;;;;;;25.92;18.27;;;;;;;;;;4994374;28;20465;-68
2023/11/28 03:35:52;;;;;;;26.27;17.58;;;;;;;;;;4994311;28;20050;-70
2023/11/28 03:38:17;;;;;;;29.02;18.98;;;;;;;;;;4994848;28;20030;-72
2023/11/28 03:40:42;;;;;;;27.15;19.25;;;;;;;;;;4976700;28;20069;-71
2023/11/28 03:43:08;;;;;;;29.08;19.83;;;;;;;;;;4976507;28;20515;-70
2023/11/28 03:45:33;;;;;;;37.50;21.77;;;;;;;;;;4977396;28;20088;-70
2023/11/28 03:47:59;;;;;;;37.33;23.83;;;;;;;;;;4976842;28;20157;-70
2023/11/28 03:50:24;;;;;;;30.80;20.88;;;;;;;;;;4978299;28;20088;-70
2023/11/28 03:52:49;;;;;;;31.55;20.70;;;;;;;;;;4998396;28;20034;-71
2023/11/28 03:55:15;;;;;;;30.40;19.85;;;;;;;;;;4980764;28;20037;-71
2023/11/28 03:57:40;;;;;;;30.08;19.85;;;;;;;;;;4980713;28;20031;-64
2023/11/28 04:00:08;;;;;;;30.05;20.27;;;;;;;;;;4998193;28;20026;-68
2023/11/28 04:02:35;;;;;;;31.55;19.13;;;;;;;;;;4998104;28;20427;-67
2023/11/28 04:05:03;;;;;;;30.58;19.33;;;;;;;;;;4981349;28;20018;-68
2023/11/28 04:07:28;;;;;;;27.08;18.67;;;;;;;;;;4980539;28;20112;-68
2023/11/28 04:09:54;;;;;;;31.95;20.67;;;;;;;;;;4980292;28;20050;-69
2023/11/28 04:12:19;;;;;;;28.17;20.83;;;;;;;;;;4998465;28;20030;-69
2023/11/28 04:14:44;;;;;;;32.10;20.88;;;;;;;;;;4997890;28;20034;-69
2023/11/28 04:17:10;;;;;;;27.35;20.60;;;;;;;;;;4980288;28;20436;-71
2023/11/28 04:19:36;;;;;;;31.05;19.88;;;;;;;;;;4964247;28;20026;-71
2023/11/28 04:22:01;;;;;;;28.77;20.40;;;;;;;;;;4980172;28;20030;-68
2023/11/28 04:24:28;;;;;;;27.05;18.80;;;;;;;;;;4980215;28;20023;-69
2023/11/28 04:26:55;;;;;;;28.55;20.02;;;;;;;;;;4980161;28;20014;-70
2023/11/28 04:29:20;;;;;;;30.70;21.60;;;;;;;;;;4980142;28;20022;-70
2023/11/28 04:31:47;;;;;;;30.25;20.77;;;;;;;;;;4980766;28;20508;-70
2023/11/28 04:34:12;;;;;;;30.02;20.38;;;;;;;;;;4996545;28;20065;-64
2023/11/28 04:36:40;;;;;;;29.17;20.52;;;;;;;;;;4964914;28;20034;-65
2023/11/28 04:39:06;;;;;;;30.02;20.42;;;;;;;;;;4997603;28;20041;-69
2023/11/28 04:41:33;;;;;;;30.58;20.35;;;;;;;;;;4979784;28;20113;-73
2023/11/28 04:43:59;;;;;;;32.17;21.70;;;;;;;;;;4980009;28;20038;-69
2023/11/28 04:46:25;;;;;;;28.40;19.85;;;;;;;;;;4997598;28;20149;-64
2023/11/28 04:48:50;;;;;;;30.27;19.98;;;;;;;;;;4997111;28;20057;-64
2023/11/28 04:51:16;;;;;;;33.58;21.40;;;;;;;;;;4997126;28;20113;-69
2023/11/28 04:53:41;;;;;;;35.50;23.38;;;;;;;;;;4979160;28;20030;-69
2023/11/28 04:56:09;;;;;;;27.85;18.63;;;;;;;;;;4980509;28;20483;-70
2023/11/28 04:58:35;;;;;;;30.23;20.38;;;;;;;;;;4979547;28;20393;-70
2023/11/28 05:01:04;;;;;;;30.20;21.35;;;;;;;;;;4980058;28;20026;-71
2023/11/28 05:03:30;;;;;;;28.52;18.98;;;;;;;;;;4978281;28;20057;-72
2023/11/28 05:05:56;;;;;;;32.70;22.40;;;;;;;;;;4979243;28;20499;-68
2023/11/28 05:08:22;;;;;;;38.25;23.58;;;;;;;;;;4978285;28;20019;-68
2023/11/28 05:10:47;;;;;;;34.88;23.77;;;;;;;;;;4978807;28;20036;-69
2023/11/28 05:13:13;;;;;;;32.15;21.38;;;;;;;;;;4978482;28;20027;-69
2023/11/28 05:15:38;;;;;;;29.10;18.88;;;;;;;;;;4978964;28;20045;-69
2023/11/28 05:18:04;;;;;;;26.98;18.52;;;;;;;;;;4962465;28;20054;-69
2023/11/28 05:20:31;;;;;;;27.13;19.48;;;;;;;;;;4979085;28;20058;-67
2023/11/28 05:22:56;;;;;;;26.60;19.15;;;;;;;;;;4963104;28;20038;-65
2023/11/28 05:25:22;;;;;;;27.20;19.65;;;;;;;;;;4979166;28;20101;-69
2023/11/28 05:27:47;;;;;;;28.35;18.98;;;;;;;;;;4979608;28;20121;-71
2023/11/28 05:30:13;;;;;;;28.85;19.27;;;;;;;;;;4979060;28;20031;-72
2023/11/28 05:32:39;;;;;;;30.52;21.73;;;;;;;;;;4978999;28;20030;-67
2023/11/28 05:35:04;;;;;;;27.90;20.55;;;;;;;;;;4978997;28;20062;-67
2023/11/28 05:37:30;;;;;;;24.58;18.80;;;;;;;;;;4978666;28;20027;-67
2023/11/28 05:39:58;;;;;;;26.48;19.00;;;;;;;;;;4979026;28;20035;-67
2023/11/28 05:42:26;;;;;;;28.23;19.08;;;;;;;;;;4978825;28;20026;-67
2023/11/28 05:44:51;;;;;;;22.10;17.80;;;;;;;;;;4994745;28;20037;-67
2023/11/28 05:47:18;;;;;;;25.30;17.48;;;;;;;;;;4998188;28;20388;-67
2023/11/28 05:49:44;;;;;;;23.25;16.85;;;;;;;;;;4998562;28;20037;-64
2023/11/28 05:52:09;;;;;;;24.42;18.50;;;;;;;;;;4981926;28;20034;-65
2023/11/28 05:54:34;;;;;;;24.67;18.75;;;;;;;;;;5009829;23;20061;-73
2023/11/28 05:57:32;;;;;;;21.77;16.52;;;;;;;;;;4988551;23;20396;-65
2023/11/28 05:59:57;;;;;;;22.73;17.02;;;;;;;;;;4956203;28;20470;-65
2023/11/28 06:02:23;;;;;;;22.98;17.27;;;;;;;;;;4956189;29;20098;-64
2023/11/28 06:04:53;;;;;;;23.90;17.80;;;;;;;;;;4955859;29;20034;-65
2023/11/28 06:07:18;;;;;;;24.23;18.55;;;;;;;;;;4955848;29;20420;-65
2023/11/28 06:09:44;;;;;;;23.83;16.70;;;;;;;;;;4956048;29;20039;-65
2023/11/28 06:12:09;;;;;;;24.08;17.33;;;;;;;;;;4955785;29;20035;-65
2023/11/28 06:14:35;;;;;;;23.13;17.52;;;;;;;;;;4940163;29;20038;-68
2023/11/28 06:17:01;;;;;;;23.60;17.08;;;;;;;;;;4972009;28;20125;-68
2023/11/28 06:19:27;;;;;;;22.88;17.90;;;;;;;;;;4955577;29;20118;-68
2023/11/28 06:21:53;;;;;;;26.30;19.70;;;;;;;;;;4956974;29;20070;-68
2023/11/28 06:24:18;;;;;;;26.83;18.60;;;;;;;;;;4956769;29;20442;-67
2023/11/28 06:26:45;;;;;;;27.85;18.42;;;;;;;;;;4956969;29;20031;-67
2023/11/28 06:29:10;;;;;;;25.90;19.00;;;;;;;;;;4957190;29;20035;-68
2023/11/28 06:31:36;;;;;;;25.75;17.75;;;;;;;;;;4956780;29;20038;-68
2023/11/28 06:34:01;;;;;;;24.42;17.98;;;;;;;;;;4956941;29;20469;-68
2023/11/28 06:36:27;;;;;;;24.40;17.23;;;;;;;;;;4956104;29;20050;-68
2023/11/28 06:38:52;;;;;;;27.25;19.50;;;;;;;;;;4956752;29;20043;-68
2023/11/28 06:41:18;;;;;;;25.35;18.77;;;;;;;;;;4955178;29;20067;-68
2023/11/28 06:43:43;;;;;;;25.65;20.30;;;;;;;;;;4955183;29;20038;-68
2023/11/28 06:46:09;;;;;;;25.00;17.95;;;;;;;;;;4956824;29;20027;-68
2023/11/28 06:48:37;;;;;;;27.05;18.67;;;;;;;;;;4970893;28;20024;-68
2023/11/28 06:51:03;;;;;;;24.35;18.08;;;;;;;;;;4954973;29;20053;-68
2023/11/28 06:53:28;;;;;;;105.90;63.20;;;;;;;;;;4956255;29;20542;-68
2023/11/28 06:55:53;;;;;;;31.88;24.55;;;;;;;;;;4954895;29;20375;-68
2023/11/28 06:58:19;;;;;;;44.53;28.15;;;;;;;;;;4964803;28;20046;-68
2023/11/28 07:00:44;;;;;;;49.00;32.28;;;;;;;;;;4975560;28;20035;-68
2023/11/28 07:03:10;;;;;;;72.60;45.35;;;;;;;;;;4975890;28;20051;-68
2023/11/28 07:05:36;;;;;;;77.55;49.90;;;;;;;;;;4975609;28;20035;-68
2023/11/28 07:08:02;;;;;;;37.75;24.60;;;;;;;;;;4974133;28;20089;-68
2023/11/28 07:10:28;;;;;;;30.02;21.75;;;;;;;;;;4974295;28;20042;-68
2023/11/28 07:12:53;;;;;;;33.03;23.10;;;;;;;;;;4975493;28;20114;-69
2023/11/28 07:15:19;;;;;;;30.90;22.85;;;;;;;;;;4973925;28;20038;-68
2023/11/28 07:17:44;;;;;;;34.83;24.42;;;;;;;;;;4973927;28;20031;-68
2023/11/28 07:20:11;;;;;;;33.92;25.05;;;;;;;;;;4975034;28;20026;-68
2023/11/28 07:22:36;;;;;;;47.80;35.78;;;;;;;;;;4958051;28;20409;-68
2023/11/28 07:25:03;;;;;;;51.42;36.90;;;;;;;;;;4974338;28;20031;-68
2023/11/28 07:27:28;;;;;;;55.13;37.20;;;;;;;;;;4974397;28;20030;-68
2023/11/28 07:29:54;;;;;;;93.85;59.03;;;;;;;;;;4975013;28;20030;-68
2023/11/28 07:32:19;;;;;;;70.15;51.30;;;;;;;;;;4975385;28;20471;-68
2023/11/28 07:34:45;;;;;;;85.47;61.63;;;;;;;;;;4974913;28;20035;-68
2023/11/28 07:37:10;;;;;;;34.38;27.08;;;;;;;;;;4974891;28;20496;-69
2023/11/28 07:39:36;;;;;;;47.45;33.85;;;;;;;;;;4974855;28;20021;-68
2023/11/28 07:42:01;;;;;;;38.25;27.15;;;;;;;;;;4957521;28;20085;-68
2023/11/28 07:44:26;;;;;;;33.05;24.60;;;;;;;;;;4973813;28;20043;-68
2023/11/28 07:46:52;;;;;;;29.30;22.42;;;;;;;;;;4974826;28;20023;-69
2023/11/28 07:49:17;;;;;;;27.35;20.88;;;;;;;;;;4975035;28;20035;-68
2023/11/28 07:51:43;;;;;;;26.00;18.27;;;;;;;;;;4973547;28;20084;-68
2023/11/28 07:54:08;;;;;;;30.85;22.92;;;;;;;;;;4974754;28;20059;-68
2023/11/28 07:56:34;;;;;;;105.85;63.70;;;;;;;;;;4975263;28;20070;-68
2023/11/28 07:58:59;;;;;;;138.20;87.80;;;;;;;;;;4974616;28;20062;-68
2023/11/28 08:01:25;;;;;;;117.10;77.43;;;;;;;;;;4975155;28;20038;-68
2023/11/28 08:03:50;;;;;;;39.47;29.25;;;;;;;;;;4973487;28;20042;-68
2023/11/28 08:06:18;;;;;;;58.85;44.55;;;;;;;;;;4975208;28;20101;-68
2023/11/28 08:08:44;;;;;;;45.25;32.53;;;;;;;;;;4973736;28;20027;-68
2023/11/28 08:11:10;;;;;;;46.40;37.53;;;;;;;;;;4974695;28;20470;-68
2023/11/28 08:13:36;;;;;;;24.30;17.45;;;;;;;;;;4974600;28;20078;-68
2023/11/28 08:16:01;;;;;;;35.33;29.40;;;;;;;;;;4957228;28;20015;-69
2023/11/28 08:18:28;;;;;;;21.35;17.42;;;;;;;;;;4974793;28;20035;-68
2023/11/28 08:20:54;;;;;;;23.05;17.75;;;;;;;;;;4973259;28;20034;-68
2023/11/28 08:23:20;;;;;;;21.63;17.17;;;;;;;;;;4957324;28;20488;-69
2023/11/28 08:25:45;;;;;;;25.60;19.48;;;;;;;;;;4974764;28;20097;-68
2023/11/28 08:28:11;;;;;;;22.38;17.95;;;;;;;;;;4974464;28;20465;-68
2023/11/28 08:30:37;;;;;;;25.25;20.23;;;;;;;;;;4973269;28;20030;-68
2023/11/28 08:33:03;;;;;;;22.50;17.58;;;;;;;;;;4974675;28;20118;-68
2023/11/28 08:35:28;;;;;;;22.15;16.08;;;;;;;;;;4957112;28;20494;-68
2023/11/28 08:37:53;;;;;;;22.15;17.58;;;;;;;;;;4977830;28;20062;-69
2023/11/28 08:40:19;;;;;;;29.77;21.05;;;;;;;;;;4978614;28;20371;-68
2023/11/28 08:42:44;;;;;;;41.78;28.25;;;;;;;;;;4976710;28;20069;-68
2023/11/28 08:45:10;;;;;;;34.17;21.88;;;;;;;;;;4977896;28;20039;-68
2023/11/28 08:47:36;;;;;;;22.73;18.08;;;;;;;;;;4976642;28;20027;-68
2023/11/28 08:50:03;;;;;;;27.88;19.13;;;;;;;;;;4978347;28;20025;-68
2023/11/28 08:52:29;;;;;;;24.58;18.50;;;;;;;;;;4977771;28;20392;-69
2023/11/28 08:54:55;;;;;;;28.05;20.60;;;;;;;;;;4977682;28;20078;-69
2023/11/28 08:57:20;;;;;;;22.88;17.10;;;;;;;;;;4976272;28;20062;-68
2023/11/28 08:59:46;;;;;;;24.60;18.67;;;;;;;;;;4976955;28;20027;-68
2023/11/28 09:02:11;;;;;;;18.60;15.50;;;;;;;;;;4977510;28;20023;-68
2023/11/28 09:04:36;;;;;;;24.08;19.73;;;;;;;;;;4977564;28;20038;-68
2023/11/28 09:07:02;;;;;;;20.92;15.73;;;;;;;;;;4977758;28;20085;-68
2023/11/28 09:09:27;;;;;;;19.67;14.98;;;;;;;;;;4977475;28;20031;-68
2023/11/28 09:11:53;;;;;;;22.27;19.00;;;;;;;;;;4977617;28;20134;-68
2023/11/28 09:14:18;;;;;;;19.98;16.63;;;;;;;;;;4977350;28;20034;-68
2023/11/28 09:16:45;;;;;;;18.40;13.30;;;;;;;;;;4977292;28;20477;-68
2023/11/28 09:19:11;;;;;;;17.95;13.65;;;;;;;;;;4976085;28;20039;-68
2023/11/28 09:21:36;;;;;;;22.58;16.45;;;;;;;;;;4977232;28;20034;-68
2023/11/28 09:24:02;;;;;;;20.48;17.05;;;;;;;;;;4977187;28;20054;-68
2023/11/28 09:26:28;;;;;;;17.85;15.57;;;;;;;;;;4977441;28;20074;-68
2023/11/28 09:28:54;;;;;;;15.00;13.40;;;;;;;;;;4977152;28;20035;-68
2023/11/28 09:31:25;;;;;;;18.40;14.20;;;;;;;;;;4977396;28;20034;-68
2023/11/28 09:33:51;;;;;;;21.75;16.65;;;;;;;;;;4977309;28;20117;-68
2023/11/28 09:36:19;;;;;;;64.13;37.40;;;;;;;;;;4977032;28;20051;-68
2023/11/28 09:38:45;;;;;;;17.00;13.48;;;;;;;;;;4977211;28;20039;-68
2023/11/28 09:41:11;;;;;;;19.50;14.90;;;;;;;;;;4976827;28;20057;-68
2023/11/28 09:43:37;;;;;;;16.60;14.93;;;;;;;;;;4976857;28;20085;-68
2023/11/28 09:46:05;;;;;;;17.27;14.25;;;;;;;;;;4976816;28;20027;-68
2023/11/28 09:48:30;;;;;;;20.25;15.93;;;;;;;;;;4976243;28;20027;-69
2023/11/28 09:50:57;;;;;;;24.40;19.63;;;;;;;;;;4977118;28;20373;-69
2023/11/28 09:53:24;;;;;;;20.67;17.80;;;;;;;;;;4976629;28;20370;-68
2023/11/28 09:55:51;;;;;;;23.88;17.55;;;;;;;;;;4976669;28;20026;-68
2023/11/28 09:58:18;;;;;;;20.88;16.38;;;;;;;;;;4975426;28;20039;-68
2023/11/28 10:00:44;;;;;;;33.05;24.67;;;;;;;;;;4976439;28;20043;-68
2023/11/28 10:03:09;;;;;;;41.88;31.75;;;;;;;;;;4976744;28;20031;-68
2023/11/28 10:05:35;;;;;;;18.75;16.08;;;;;;;;;;4975859;28;20026;-68
2023/11/28 10:08:00;;;;;;;26.75;23.00;;;;;;;;;;4976353;28;20035;-68
2023/11/28 10:10:25;;;;;;;20.95;16.73;;;;;;;;;;4977060;28;20046;-68
2023/11/28 10:12:51;;;;;;;24.90;20.08;;;;;;;;;;4976594;28;20030;-69
2023/11/28 10:15:25;;;;;;;20.63;17.05;;;;;;;;;;4976533;28;20035;-68
2023/11/28 10:17:50;;;;;;;32.00;23.38;;;;;;;;;;4976472;28;20394;-68
2023/11/28 10:20:17;;;;;;;23.65;18.92;;;;;;;;;;4974931;28;20066;-68
2023/11/28 10:22:52;;;;;;;35.97;27.75;;;;;;;;;;4976085;28;20027;-68
2023/11/28 10:25:19;;;;;;;39.25;30.10;;;;;;;;;;4976070;28;20037;-68
2023/11/28 10:27:46;;;;;;;32.20;23.70;;;;;;;;;;4976301;28;20023;-68
2023/11/28 10:30:12;;;;;;;29.00;21.67;;;;;;;;;;4974670;28;20393;-69
2023/11/28 10:32:38;;;;;;;36.97;26.40;;;;;;;;;;4976197;28;20054;-69
2023/11/28 10:35:05;;;;;;;74.10;47.53;;;;;;;;;;4975873;28;20051;-68
2023/11/28 10:37:33;;;;;;;40.65;31.40;;;;;;;;;;4975829;28;20059;-68
2023/11/28 10:39:58;;;;;;;23.75;19.38;;;;;;;;;;4975853;28;20026;-68
2023/11/28 10:42:24;;;;;;;17.30;14.35;;;;;;;;;;4975059;28;20039;-69
2023/11/28 10:44:50;;;;;;;21.27;16.85;;;;;;;;;;4942714;28;20473;-69
2023/11/28 10:47:17;;;;;;;17.33;14.60;;;;;;;;;;4975912;28;20027;-68
2023/11/28 10:49:43;;;;;;;18.92;16.92;;;;;;;;;;4976172;28;20025;-68
2023/11/28 10:52:08;;;;;;;25.10;19.23;;;;;;;;;;4974376;28;20039;-68
2023/11/28 10:54:36;;;;;;;39.45;25.15;;;;;;;;;;4975861;28;20030;-68
2023/11/28 10:57:05;;;;;;;15.55;12.23;;;;;;;;;;4975077;28;20041;-68
2023/11/28 10:59:35;;;;;;;16.17;13.65;;;;;;;;;;4974036;28;20055;-68
2023/11/28 11:02:03;;;;;;;16.60;14.02;;;;;;;;;;4975607;28;20038;-68
2023/11/28 11:04:29;;;;;;;13.40;11.32;;;;;;;;;;4975350;28;20027;-68
2023/11/28 11:06:55;;;;;;;22.77;18.48;;;;;;;;;;4974291;28;20105;-69
2023/11/28 11:09:23;;;;;;;29.98;24.80;;;;;;;;;;4974029;28;20034;-69
2023/11/28 11:11:49;;;;;;;21.33;16.50;;;;;;;;;;4974215;28;20031;-68
2023/11/28 11:14:40;;;;;;;15.27;13.77;;;;;;;;;;4975540;28;20045;-68
2023/11/28 11:17:05;;;;;;;18.00;15.32;;;;;;;;;;4973971;28;20038;-69
2023/11/28 11:19:31;;;;;;;14.38;12.85;;;;;;;;;;4973918;28;20091;-68
2023/11/28 11:22:02;;;;;;;70.03;39.75;;;;;;;;;;4975072;28;20038;-68
2023/11/28 11:24:28;;;;;;;22.13;19.58;;;;;;;;;;4975405;28;20023;-69
2023/11/28 11:26:54;;;;;;;23.30;20.08;;;;;;;;;;4975036;28;20531;-68
2023/11/28 11:29:23;;;;;;;22.88;17.98;;;;;;;;;;4975304;28;20384;-68
2023/11/28 11:31:53;;;;;;;21.75;17.52;;;;;;;;;;4974023;28;20491;-69
2023/11/28 11:34:37;;;;;;;19.93;15.60;;;;;;;;;;4957843;28;20030;-68
2023/11/28 11:37:08;;;;;;;38.55;24.05;;;;;;;;;;4974812;28;20062;-68
2023/11/28 11:39:35;;;;;;;22.02;16.70;;;;;;;;;;4975034;28;20034;-68
2023/11/28 11:42:01;;;;;;;19.75;16.35;;;;;;;;;;4974855;28;20049;-68
2023/11/28 11:44:26;;;;;;;21.70;17.48;;;;;;;;;;4975421;28;20031;-68
2023/11/28 11:46:52;;;;;;;25.23;19.33;;;;;;;;;;4974843;28;20029;-68
2023/11/28 11:49:18;;;;;;;20.88;16.20;;;;;;;;;;4975102;28;20409;-68
2023/11/28 11:51:43;;;;;;;20.45;16.33;;;;;;;;;;4975053;28;20126;-68
2023/11/28 11:54:10;;;;;;;40.95;26.90;;;;;;;;;;4974734;28;20389;-69
2023/11/28 11:56:35;;;;;;;23.20;18.77;;;;;;;;;;4974767;28;20023;-68
2023/11/28 11:59:04;;;;;;;22.83;18.38;;;;;;;;;;4974630;28;20057;-68
2023/11/28 12:01:30;;;;;;;44.90;29.42;;;;;;;;;;4974897;28;20041;-68
2023/11/28 12:03:59;;;;;;;57.75;36.20;;;;;;;;;;4975052;28;20023;-68
2023/11/28 12:06:25;;;;;;;51.88;32.90;;;;;;;;;;4974644;28;20034;-68
2023/11/28 12:08:50;;;;;;;69.63;41.95;;;;;;;;;;4975165;28;20039;-69
2023/11/28 12:11:16;;;;;;;54.50;36.30;;;;;;;;;;4975845;28;20026;-68
2023/11/28 12:13:41;;;;;;;53.28;37.03;;;;;;;;;;4961182;28;20023;-69
2023/11/28 12:16:07;;;;;;;48.35;32.78;;;;;;;;;;4978429;28;20038;-68
2023/11/28 12:18:34;;;;;;;42.17;32.70;;;;;;;;;;4978365;28;20034;-68
2023/11/28 12:21:03;;;;;;;35.58;29.38;;;;;;;;;;4978303;28;20549;-68
2023/11/28 12:23:28;;;;;;;33.65;30.05;;;;;;;;;;4977587;28;20416;-69
2023/11/28 12:25:56;;;;;;;36.47;31.90;;;;;;;;;;4976999;28;20174;-68
2023/11/28 12:28:21;;;;;;;26.45;20.95;;;;;;;;;;4977570;28;20034;-69
2023/11/28 12:30:48;;;;;;;25.30;18.83;;;;;;;;;;4976994;28;20466;-69
2023/11/28 12:33:14;;;;;;;59.08;34.28;;;;;;;;;;4978112;28;20066;-69
2023/11/28 12:35:39;;;;;;;52.03;32.13;;;;;;;;;;4960751;28;20113;-69
2023/11/28 12:38:09;;;;;;;33.17;23.10;;;;;;;;;;4978280;28;20065;-68
2023/11/28 12:40:35;;;;;;;30.38;22.48;;;;;;;;;;4978198;28;20037;-69
2023/11/28 12:43:02;;;;;;;37.67;28.58;;;;;;;;;;4978215;28;20015;-68
2023/11/28 12:45:30;;;;;;;50.95;32.88;;;;;;;;;;4978209;28;20030;-69
2023/11/28 12:47:56;;;;;;;52.88;31.73;;;;;;;;;;4976649;28;20023;-69
2023/11/28 12:50:24;;;;;;;102.43;51.15;;;;;;;;;;4977815;28;20445;-69
2023/11/28 12:52:50;;;;;;;46.15;30.40;;;;;;;;;;4977823;28;20026;-69
2023/11/28 12:55:16;;;;;;;45.65;33.45;;;;;;;;;;4978036;28;20061;-68
2023/11/28 12:57:42;;;;;;;45.35;29.85;;;;;;;;;;4977498;28;20437;-69
2023/11/28 13:00:07;;;;;;;54.97;35.60;;;;;;;;;;4977956;28;20061;-69
2023/11/28 13:02:33;;;;;;;62.97;38.83;;;;;;;;;;4977798;28;20034;-69
2023/11/28 13:04:58;;;;;;;68.05;45.50;;;;;;;;;;4977861;28;20062;-69
2023/11/28 13:07:23;;;;;;;53.95;34.90;;;;;;;;;;4977528;28;20026;-68
2023/11/28 13:09:49;;;;;;;44.60;34.60;;;;;;;;;;4976244;28;20026;-69
2023/11/28 13:12:14;;;;;;;65.60;49.15;;;;;;;;;;4977519;28;20037;-68
2023/11/28 13:14:40;;;;;;;42.22;34.08;;;;;;;;;;4975404;28;20117;-68
2023/11/28 13:17:06;;;;;;;99.18;57.03;;;;;;;;;;4958989;28;20035;-68
2023/11/28 13:19:31;;;;;;;37.67;29.30;;;;;;;;;;4976499;28;20510;-68
2023/11/28 13:21:57;;;;;;;27.48;21.48;;;;;;;;;;4976381;28;20062;-73
2023/11/28 13:24:23;;;;;;;28.08;22.58;;;;;;;;;;4974815;28;20054;-69
2023/11/28 13:26:49;;;;;;;26.50;23.70;;;;;;;;;;4975863;28;20716;-69
2023/11/28 13:29:15;;;;;;;25.17;22.48;;;;;;;;;;4974582;28;20022;-68
2023/11/28 13:31:41;;;;;;;30.15;24.88;;;;;;;;;;4974394;28;20038;-68
2023/11/28 13:34:07;;;;;;;35.00;24.92;;;;;;;;;;4975720;28;20043;-69
2023/11/28 13:36:32;;;;;;;47.05;36.40;;;;;;;;;;4975347;28;20089;-66
2023/11/28 13:38:58;;;;;;;57.35;37.67;;;;;;;;;;4975334;28;20039;-67
2023/11/28 13:41:23;;;;;;;22.33;17.63;;;;;;;;;;4974530;28;20058;-65
2023/11/28 13:43:49;;;;;;;28.77;20.63;;;;;;;;;;4975919;28;20065;-66
2023/11/28 13:46:14;;;;;;;37.05;24.48;;;;;;;;;;4976681;28;20119;-66
2023/11/28 13:48:41;;;;;;;54.40;35.97;;;;;;;;;;4975285;28;20061;-66
2023/11/28 13:51:07;;;;;;;49.50;32.28;;;;;;;;;;4957717;28;20602;-67
2023/11/28 13:53:33;;;;;;;38.25;25.40;;;;;;;;;;4975590;28;20026;-66
2023/11/28 13:55:59;;;;;;;44.58;29.67;;;;;;;;;;4974169;28;20031;-66
2023/11/28 13:58:24;;;;;;;44.28;32.05;;;;;;;;;;4972810;28;20043;-67
2023/11/28 14:00:50;;;;;;;53.55;38.85;;;;;;;;;;4974723;28;20031;-67
2023/11/28 14:03:15;;;;;;;53.63;34.63;;;;;;;;;;4958796;28;20027;-67
2023/11/28 14:05:41;;;;;;;34.15;23.63;;;;;;;;;;4975156;28;20034;-67
2023/11/28 14:08:06;;;;;;;36.47;24.60;;;;;;;;;;4976242;28;20018;-67
2023/11/28 14:10:32;;;;;;;52.50;32.92;;;;;;;;;;4975009;28;20023;-67
2023/11/28 14:12:57;;;;;;;50.65;33.90;;;;;;;;;;4975727;28;20038;-67
2023/11/28 14:15:23;;;;;;;54.08;33.38;;;;;;;;;;4976343;28;20027;-67
2023/11/28 14:17:48;;;;;;;63.80;40.35;;;;;;;;;;4975789;28;20058;-67